createdAt,value
2017-07-10T00:01:19.222Z,85.00
2017-07-10T00:03:46.765Z,85.40
2017-07-10T00:06:14.342Z,85.40
2017-07-10T00:08:41.826Z,85.40
2017-07-10T00:11:09.365Z,85.90
2017-07-10T00:13:36.882Z,86.30
2017-07-10T00:16:04.424Z,86.10
2017-07-10T00:18:32.716Z,86.40
2017-07-10T00:21:00.255Z,86.30
2017-07-10T00:23:27.976Z,85.80
2017-07-10T00:25:55.511Z,86.00
2017-07-10T00:28:23.034Z,86.40
2017-07-10T00:30:50.583Z,86.20
2017-07-10T00:33:18.097Z,86.30
2017-07-10T00:35:45.621Z,86.80
2017-07-10T00:38:13.939Z,87.90
2017-07-10T00:40:41.457Z,87.90
2017-07-10T00:43:09.761Z,88.30
2017-07-10T00:45:37.286Z,88.30
2017-07-10T00:48:05.594Z,89.20
2017-07-10T00:50:33.111Z,89.20
2017-07-10T00:53:00.646Z,89.60
2017-07-10T00:55:28.173Z,89.80
2017-07-10T00:57:55.729Z,90.10
2017-07-10T01:00:23.266Z,90.20
2017-07-10T01:02:50.794Z,90.70
2017-07-10T01:05:18.336Z,90.50
2017-07-10T01:07:45.858Z,91.20
2017-07-10T01:10:13.398Z,90.60
2017-07-10T01:12:41.685Z,90.10
2017-07-10T01:15:09.313Z,90.10
2017-07-10T01:17:36.844Z,90.10
2017-07-10T01:20:04.385Z,90.20
2017-07-10T01:22:31.900Z,90.50
2017-07-10T01:25:00.221Z,91.10
2017-07-10T01:27:27.769Z,91.10
2017-07-10T01:29:55.301Z,91.30
2017-07-10T01:32:23.614Z,91.50
2017-07-10T01:34:51.141Z,91.40
2017-07-10T01:37:19.450Z,91.50
2017-07-10T01:39:46.966Z,91.40
2017-07-10T01:42:15.285Z,91.50
2017-07-10T01:44:42.802Z,91.50
2017-07-10T01:47:11.106Z,91.90
2017-07-10T01:49:38.629Z,91.50
2017-07-10T01:52:06.171Z,91.40
2017-07-10T01:54:33.715Z,91.40
2017-07-10T01:57:01.234Z,91.50
2017-07-10T01:59:28.778Z,91.50
2017-07-10T02:01:56.314Z,91.40
2017-07-10T02:04:23.857Z,91.70
2017-07-10T02:06:51.383Z,91.40
2017-07-10T02:09:18.921Z,92.00
2017-07-10T02:11:46.450Z,92.20
2017-07-10T02:14:13.985Z,92.30
2017-07-10T02:16:41.523Z,92.30
2017-07-10T02:19:09.089Z,92.10
2017-07-10T02:21:36.617Z,92.20
2017-07-10T02:24:04.138Z,92.20
2017-07-10T02:26:31.689Z,92.10
2017-07-10T02:28:59.197Z,92.00
2017-07-10T02:31:26.737Z,91.90
2017-07-10T02:33:55.028Z,91.90
2017-07-10T02:36:22.575Z,91.80
2017-07-10T02:38:50.894Z,91.50
2017-07-10T02:41:18.426Z,91.50
2017-07-10T02:43:45.949Z,91.50
2017-07-10T02:46:13.508Z,91.50
2017-07-10T02:48:41.033Z,91.70
2017-07-10T02:51:08.544Z,91.50
2017-07-10T02:53:36.853Z,91.50
2017-07-10T02:56:04.375Z,91.50
2017-07-10T02:58:32.682Z,91.50
2017-07-10T03:01:00.201Z,91.50
2017-07-10T03:03:27.736Z,91.70
2017-07-10T03:05:55.246Z,91.50
2017-07-10T03:08:22.780Z,91.50
2017-07-10T03:10:50.312Z,91.50
2017-07-10T03:13:17.859Z,91.50
2017-07-10T03:15:45.399Z,91.50
2017-07-10T03:18:12.926Z,91.50
2017-07-10T03:20:41.233Z,91.60
2017-07-10T03:23:08.774Z,91.50
2017-07-10T03:25:36.313Z,91.50
2017-07-10T03:28:03.834Z,91.50
2017-07-10T03:30:31.381Z,91.50
2017-07-10T03:32:58.902Z,91.50
2017-07-10T03:35:27.208Z,91.50
2017-07-10T03:37:54.734Z,91.50
2017-07-10T03:40:23.045Z,91.50
2017-07-10T03:42:50.560Z,91.50
2017-07-10T03:45:18.850Z,91.60
2017-07-10T03:47:47.150Z,91.30
2017-07-10T03:50:14.689Z,91.30
2017-07-10T03:52:42.238Z,91.30
2017-07-10T03:55:10.525Z,91.00
2017-07-10T03:57:38.066Z,91.00
2017-07-10T04:00:05.585Z,90.60
2017-07-10T04:02:33.117Z,90.20
2017-07-10T04:05:00.641Z,89.60
2017-07-10T04:07:28.959Z,87.80
2017-07-10T04:09:56.477Z,87.80
2017-07-10T04:12:24.769Z,87.20
2017-07-10T04:14:52.353Z,87.20
2017-07-10T04:17:19.885Z,86.50
2017-07-10T04:19:47.426Z,85.50
2017-07-10T04:22:15.721Z,86.10
2017-07-10T04:24:44.030Z,85.50
2017-07-10T04:27:11.557Z,85.50
2017-07-10T04:29:39.862Z,85.70
2017-07-10T04:32:07.390Z,85.60
2017-07-10T04:34:34.944Z,85.00
2017-07-10T04:37:03.227Z,84.70
2017-07-10T04:39:30.769Z,84.50
2017-07-10T04:41:59.074Z,84.20
2017-07-10T04:44:26.607Z,83.90
2017-07-10T04:46:54.914Z,82.30
2017-07-10T04:49:22.442Z,82.80
2017-07-10T04:51:50.746Z,81.80
2017-07-10T04:54:18.272Z,81.70
2017-07-10T04:56:46.170Z,81.50
2017-07-10T04:59:13.692Z,81.60
2017-07-10T05:01:41.234Z,80.60
2017-07-10T05:04:08.753Z,80.90
2017-07-10T05:06:36.267Z,81.70
2017-07-10T05:09:03.800Z,83.10
2017-07-10T05:11:31.330Z,84.20
2017-07-10T05:13:58.903Z,85.50
2017-07-10T05:16:26.433Z,85.70
2017-07-10T05:18:53.965Z,86.20
2017-07-10T05:21:21.489Z,87.30
2017-07-10T05:23:49.050Z,86.10
2017-07-10T05:26:16.591Z,86.20
2017-07-10T05:28:44.135Z,85.90
2017-07-10T05:31:11.662Z,86.00
2017-07-10T05:33:39.954Z,85.10
2017-07-10T05:36:08.230Z,85.10
2017-07-10T05:38:36.513Z,77.80
2017-07-10T05:41:04.059Z,77.60
2017-07-10T05:43:32.349Z,77.40
2017-07-10T05:45:59.885Z,77.40
2017-07-10T05:48:27.485Z,77.00
2017-07-10T05:50:55.026Z,76.70
2017-07-10T05:53:22.549Z,76.80
2017-07-10T05:55:50.280Z,75.80
2017-07-10T05:58:17.804Z,75.10
2017-07-10T06:00:45.321Z,75.50
2017-07-10T06:03:12.876Z,73.50
2017-07-10T06:05:40.398Z,72.70
2017-07-10T06:08:07.945Z,70.60
2017-07-10T06:10:35.461Z,69.90
2017-07-10T06:13:03.019Z,70.70
2017-07-10T06:15:30.543Z,70.00
2017-07-10T06:17:58.097Z,69.40
2017-07-10T06:20:25.645Z,68.70
2017-07-10T06:22:53.326Z,69.30
2017-07-10T06:25:20.842Z,68.50
2017-07-10T06:27:48.384Z,68.60
2017-07-10T06:30:15.929Z,69.20
2017-07-10T06:32:43.449Z,71.10
2017-07-10T06:35:11.010Z,70.80
2017-07-10T06:37:38.529Z,70.80
2017-07-10T06:40:06.846Z,72.30
2017-07-10T06:42:34.376Z,72.30
2017-07-10T06:45:02.687Z,71.30
2017-07-10T06:47:30.214Z,71.30
2017-07-10T06:49:57.758Z,70.90
2017-07-10T06:52:26.061Z,71.10
2017-07-10T06:54:53.644Z,71.10
2017-07-10T06:57:21.177Z,70.10
2017-07-10T06:59:48.694Z,69.80
2017-07-10T07:02:16.243Z,69.10
2017-07-10T07:04:43.774Z,69.20
2017-07-10T07:07:11.319Z,67.50
2017-07-10T07:09:38.867Z,67.10
2017-07-10T07:12:06.410Z,65.90
2017-07-10T07:14:34.697Z,61.00
2017-07-10T07:17:03.004Z,58.40
2017-07-10T07:19:30.552Z,58.30
2017-07-10T07:21:58.073Z,56.20
2017-07-10T07:24:25.605Z,54.90
2017-07-10T07:26:53.142Z,54.50
2017-07-10T07:29:20.699Z,54.40
2017-07-10T07:31:48.218Z,54.20
2017-07-10T07:34:16.545Z,52.00
2017-07-10T07:36:44.103Z,52.10
2017-07-10T07:39:11.655Z,53.20
2017-07-10T07:41:39.184Z,53.70
2017-07-10T07:44:06.736Z,55.00
2017-07-10T07:46:35.018Z,56.10
2017-07-10T07:49:03.301Z,56.60
2017-07-10T07:51:30.829Z,56.50
2017-07-10T07:53:58.347Z,56.50
2017-07-10T07:56:25.881Z,56.00
2017-07-10T07:58:53.422Z,54.70
2017-07-10T08:01:21.752Z,54.10
2017-07-10T08:03:49.285Z,54.00
2017-07-10T08:06:16.823Z,53.40
2017-07-10T08:08:44.353Z,52.90
2017-07-10T08:11:11.901Z,53.00
2017-07-10T08:13:39.449Z,53.00
2017-07-10T08:16:06.982Z,53.70
2017-07-10T08:18:34.521Z,52.90
2017-07-10T08:21:02.046Z,53.50
2017-07-10T08:23:29.665Z,53.60
2017-07-10T08:25:57.194Z,53.90
2017-07-10T08:28:24.743Z,54.90
2017-07-10T08:30:53.026Z,55.40
2017-07-10T08:33:21.325Z,54.80
2017-07-10T08:35:48.850Z,54.80
2017-07-10T08:38:17.153Z,55.10
2017-07-10T08:40:44.668Z,55.10
2017-07-10T08:43:12.189Z,55.30
2017-07-10T08:45:39.721Z,55.60
2017-07-10T08:48:07.251Z,55.10
2017-07-10T08:50:34.800Z,55.10
2017-07-10T08:53:02.315Z,54.80
2017-07-10T08:55:29.874Z,55.20
2017-07-10T08:57:57.406Z,54.50
2017-07-10T09:00:25.718Z,55.60
2017-07-10T09:02:53.237Z,55.60
2017-07-10T09:05:21.544Z,55.40
2017-07-10T09:07:49.059Z,55.40
2017-07-10T09:10:16.573Z,55.70
2017-07-10T09:12:44.149Z,56.30
2017-07-10T09:15:11.678Z,57.00
2017-07-10T09:17:39.224Z,58.30
2017-07-10T09:20:06.729Z,58.50
2017-07-10T09:22:34.264Z,58.90
2017-07-10T09:25:01.793Z,58.70
2017-07-10T09:27:30.085Z,52.50
2017-07-10T09:29:57.597Z,52.40
2017-07-10T09:32:25.151Z,49.80
2017-07-10T09:34:52.661Z,48.30
2017-07-10T09:37:20.173Z,47.30
2017-07-10T09:39:47.711Z,47.40
2017-07-10T09:42:15.232Z,47.00
2017-07-10T09:44:42.759Z,47.50
2017-07-10T09:47:10.278Z,45.90
2017-07-10T09:49:37.819Z,45.90
2017-07-10T09:52:05.341Z,44.70
2017-07-10T09:54:33.650Z,42.30
2017-07-10T09:57:01.172Z,42.20
2017-07-10T09:59:28.714Z,37.90
2017-07-10T10:01:56.237Z,36.80
2017-07-10T10:04:23.762Z,35.80
2017-07-10T10:06:51.301Z,35.70
2017-07-10T10:09:19.589Z,34.60
2017-07-10T10:11:47.893Z,32.20
2017-07-10T10:14:15.418Z,32.20
2017-07-10T10:16:43.743Z,30.90
2017-07-10T10:19:11.253Z,30.80
2017-07-10T10:21:39.580Z,32.70
2017-07-10T10:24:07.104Z,32.70
2017-07-10T10:26:34.653Z,33.80
2017-07-10T10:29:02.951Z,35.20
2017-07-10T10:31:30.477Z,35.10
2017-07-10T10:33:58.792Z,35.50
2017-07-10T10:36:26.330Z,35.10
2017-07-10T10:38:54.632Z,37.70
2017-07-10T10:41:22.150Z,37.70
2017-07-10T10:43:50.495Z,39.40
2017-07-10T10:46:18.028Z,39.40
2017-07-10T10:48:45.556Z,39.90
2017-07-10T10:51:13.841Z,40.50
2017-07-10T10:53:41.423Z,40.40
2017-07-10T10:56:08.943Z,39.50
2017-07-10T10:58:37.226Z,38.00
2017-07-10T11:01:05.525Z,37.60
2017-07-10T11:03:33.049Z,37.60
2017-07-10T11:06:01.353Z,34.10
2017-07-10T11:08:28.873Z,34.10
2017-07-10T11:10:56.412Z,33.50
2017-07-10T11:13:23.926Z,32.80
2017-07-10T11:15:51.466Z,33.30
2017-07-10T11:18:20.565Z,33.60
2017-07-10T11:20:48.882Z,34.80
2017-07-10T11:23:16.401Z,34.70
2017-07-10T11:25:44.695Z,32.90
2017-07-10T11:28:12.246Z,32.90
2017-07-10T11:30:39.771Z,33.40
2017-07-10T11:33:07.305Z,33.30
2017-07-10T11:35:34.855Z,33.20
2017-07-10T11:38:02.390Z,33.30
2017-07-10T11:40:29.915Z,33.70
2017-07-10T11:42:57.450Z,34.80
2017-07-10T11:45:24.966Z,35.60
2017-07-10T11:47:52.517Z,35.60
2017-07-10T11:50:20.034Z,35.60
2017-07-10T11:52:47.553Z,35.40
2017-07-10T11:55:15.090Z,35.40
2017-07-10T11:57:42.628Z,33.70
2017-07-10T12:00:10.933Z,32.90
2017-07-10T12:02:38.448Z,32.30
2017-07-10T12:05:06.002Z,31.70
2017-07-10T12:07:33.528Z,31.30
2017-07-10T12:10:01.060Z,30.70
2017-07-10T12:12:28.585Z,31.00
2017-07-10T12:14:56.173Z,30.00
2017-07-10T12:17:24.481Z,28.10
2017-07-10T12:19:52.008Z,28.00
2017-07-10T12:22:20.321Z,28.00
2017-07-10T12:24:47.841Z,27.90
2017-07-10T12:27:16.139Z,29.10
2017-07-10T12:29:43.665Z,29.00
2017-07-10T12:32:11.974Z,29.60
2017-07-10T12:34:39.510Z,29.60
2017-07-10T12:37:07.817Z,28.70
2017-07-10T12:39:35.341Z,28.80
2017-07-10T12:42:03.656Z,28.10
2017-07-10T12:44:31.172Z,28.10
2017-07-10T12:46:59.495Z,27.00
2017-07-10T12:49:27.026Z,27.10
2017-07-10T12:51:54.603Z,27.60
2017-07-10T12:54:22.153Z,28.00
2017-07-10T12:56:49.674Z,27.70
2017-07-10T12:59:17.205Z,28.80
2017-07-10T13:01:44.730Z,29.80
2017-07-10T13:04:12.269Z,29.40
2017-07-10T13:06:40.548Z,28.50
2017-07-10T13:09:08.857Z,28.90
2017-07-10T13:11:36.368Z,28.90
2017-07-10T13:14:04.698Z,28.20
2017-07-10T13:16:32.230Z,28.20
2017-07-10T13:18:59.744Z,28.80
2017-07-10T13:21:27.281Z,28.40
2017-07-10T13:23:54.821Z,28.20
2017-07-10T13:26:22.365Z,28.00
2017-07-10T13:28:49.886Z,28.80
2017-07-10T13:31:17.437Z,27.90
2017-07-10T13:33:44.958Z,27.20
2017-07-10T13:36:12.502Z,26.70
2017-07-10T13:38:40.034Z,26.80
2017-07-10T13:41:08.327Z,27.00
2017-07-10T13:43:35.875Z,26.50
2017-07-10T13:46:04.159Z,26.50
2017-07-10T13:48:31.697Z,26.50
2017-07-10T13:50:59.982Z,25.10
2017-07-10T13:53:28.290Z,26.60
2017-07-10T13:55:55.814Z,26.60
2017-07-10T13:58:24.123Z,26.80
2017-07-10T14:00:51.666Z,26.70
2017-07-10T14:03:19.201Z,27.80
2017-07-10T14:05:46.718Z,27.70
2017-07-10T14:08:14.238Z,28.50
2017-07-10T14:10:41.774Z,28.90
2017-07-10T14:13:09.302Z,29.00
2017-07-10T14:15:36.834Z,28.40
2017-07-10T14:18:04.360Z,29.60
2017-07-10T14:20:32.689Z,31.80
2017-07-10T14:23:00.238Z,31.20
2017-07-10T14:25:27.770Z,35.40
2017-07-10T14:27:55.302Z,40.00
2017-07-10T14:30:22.845Z,43.10
2017-07-10T14:32:50.392Z,46.00
2017-07-10T14:35:17.925Z,60.80
2017-07-10T14:37:45.459Z,66.40
2017-07-10T14:40:13.750Z,77.70
2017-07-10T14:42:41.285Z,78.10
2017-07-10T14:45:09.561Z,72.60
2017-07-10T14:47:37.894Z,65.50
2017-07-10T14:50:05.415Z,66.30
2017-07-10T14:52:32.933Z,58.40
2017-07-10T14:55:00.469Z,54.40
2017-07-10T14:57:28.002Z,58.70
2017-07-10T14:59:55.538Z,57.90
2017-07-10T15:02:23.851Z,52.40
2017-07-10T15:04:51.408Z,52.60
2017-07-10T15:07:18.934Z,52.40
2017-07-10T15:09:47.274Z,51.80
2017-07-10T15:12:14.792Z,51.50
2017-07-10T15:14:42.318Z,49.10
2017-07-10T15:17:10.614Z,45.90
2017-07-10T15:19:38.151Z,45.20
2017-07-10T15:22:06.455Z,44.50
2017-07-10T15:24:33.987Z,44.50
2017-07-10T15:27:01.525Z,46.90
2017-07-10T15:29:29.049Z,47.50
2017-07-10T15:36:24.889Z,47.80
2017-07-10T15:38:52.405Z,48.50
2017-07-10T15:41:19.942Z,49.40
2017-07-10T15:43:47.453Z,47.30
2017-07-10T15:46:14.993Z,48.00
2017-07-10T15:48:42.518Z,46.70
2017-07-10T15:51:10.050Z,46.30
2017-07-10T15:53:37.572Z,47.80
2017-07-10T15:56:05.873Z,49.10
2017-07-10T15:58:33.402Z,49.20
2017-07-10T16:01:01.713Z,49.60
2017-07-10T16:03:29.222Z,49.60
2017-07-10T16:05:56.768Z,52.10
2017-07-10T16:08:24.300Z,54.40
2017-07-10T16:10:51.811Z,55.10
2017-07-10T16:13:20.110Z,54.50
2017-07-10T16:15:47.646Z,54.60
2017-07-10T16:18:15.957Z,55.70
2017-07-10T16:20:43.591Z,55.60
2017-07-10T16:23:11.902Z,57.10
2017-07-10T16:25:39.441Z,57.10
2017-07-10T16:28:06.973Z,66.30
2017-07-10T16:30:35.262Z,69.00
2017-07-10T16:33:03.557Z,65.00
2017-07-10T16:35:31.080Z,64.50
2017-07-10T16:37:58.631Z,69.60
2017-07-10T16:40:26.146Z,68.30
2017-07-10T16:42:53.654Z,69.80
2017-07-10T16:45:21.193Z,58.90
2017-07-10T16:47:48.749Z,54.80
2017-07-10T16:50:16.279Z,51.60
2017-07-10T16:52:43.798Z,53.50
2017-07-10T16:55:12.098Z,47.50
2017-07-10T16:57:39.663Z,47.40
2017-07-10T17:00:07.198Z,48.80
2017-07-10T17:02:35.490Z,46.10
2017-07-10T17:05:03.009Z,45.90
2017-07-10T17:07:30.542Z,48.90
2017-07-10T17:09:58.050Z,47.40
2017-07-10T17:12:26.353Z,49.20
2017-07-10T17:14:53.875Z,49.20
2017-07-10T17:17:22.177Z,50.90
2017-07-10T17:19:49.698Z,50.90
2017-07-10T17:22:17.231Z,50.50
2017-07-10T17:24:44.746Z,50.60
2017-07-10T17:27:12.283Z,52.20
2017-07-10T17:29:40.565Z,51.40
2017-07-10T17:32:08.839Z,52.60
2017-07-10T17:34:37.135Z,52.50
2017-07-10T17:37:04.689Z,52.50
2017-07-10T17:39:32.986Z,54.30
2017-07-10T17:42:00.505Z,54.20
2017-07-10T17:44:28.805Z,55.20
2017-07-10T17:46:56.391Z,55.20
2017-07-10T17:49:23.920Z,55.40
2017-07-10T17:51:51.440Z,54.40
2017-07-10T17:54:18.973Z,54.50
2017-07-10T17:56:46.492Z,53.60
2017-07-10T17:59:14.813Z,52.30
2017-07-10T18:01:42.726Z,52.30
2017-07-10T18:04:11.005Z,52.30
2017-07-10T18:06:39.316Z,53.10
2017-07-10T18:09:06.841Z,53.10
2017-07-10T18:11:35.149Z,52.90
2017-07-10T18:14:02.661Z,52.90
2017-07-10T18:16:30.216Z,53.80
2017-07-10T18:18:57.734Z,53.60
2017-07-10T18:21:25.252Z,54.70
2017-07-10T18:23:53.551Z,54.60
2017-07-10T18:26:21.070Z,54.60
2017-07-10T18:28:48.615Z,55.00
2017-07-10T18:31:16.143Z,56.10
2017-07-10T18:33:43.689Z,56.40
2017-07-10T18:36:11.200Z,56.00
2017-07-10T18:38:38.739Z,57.90
2017-07-10T18:41:06.261Z,58.50
2017-07-10T18:43:33.829Z,58.70
2017-07-10T18:46:01.345Z,60.10
2017-07-10T18:48:29.648Z,60.70
2017-07-10T18:50:57.181Z,60.70
2017-07-10T18:53:28.462Z,61.30
2017-07-10T18:55:56.016Z,62.50
2017-07-10T18:58:23.523Z,63.30
2017-07-10T19:00:51.071Z,64.30
2017-07-10T19:03:18.579Z,64.30
2017-07-10T19:05:46.877Z,65.90
2017-07-10T19:08:14.391Z,65.80
2017-07-10T19:10:41.925Z,66.10
2017-07-10T19:13:09.440Z,66.70
2017-07-10T19:15:36.972Z,67.10
2017-07-10T19:18:05.286Z,68.40
2017-07-10T19:20:32.821Z,68.30
2017-07-10T19:23:01.120Z,69.10
2017-07-10T19:25:28.642Z,69.10
2017-07-10T19:27:57.920Z,70.00
2017-07-10T19:30:25.471Z,69.90
2017-07-10T19:32:53.046Z,69.80
2017-07-10T19:35:20.593Z,70.20
2017-07-10T19:37:48.127Z,70.20
2017-07-10T19:40:15.649Z,71.40
2017-07-10T19:42:43.203Z,71.60
2017-07-10T19:45:11.481Z,73.00
2017-07-10T19:47:39.801Z,73.00
2017-07-10T19:50:07.318Z,72.90
2017-07-10T19:52:34.843Z,73.70
2017-07-10T19:55:02.387Z,74.30
2017-07-10T19:57:29.912Z,73.90
2017-07-10T19:59:57.450Z,73.10
2017-07-10T20:02:25.759Z,72.80
2017-07-10T20:04:53.306Z,72.80
2017-07-10T20:07:20.830Z,72.70
2017-07-10T20:09:49.142Z,72.80
2017-07-10T20:12:16.663Z,72.00
2017-07-10T20:14:45.035Z,71.00
2017-07-10T20:17:12.561Z,71.50
2017-07-10T20:19:40.081Z,71.80
2017-07-10T20:22:07.623Z,71.20
2017-07-10T20:24:35.158Z,71.70
2017-07-10T20:27:02.692Z,71.60
2017-07-10T20:29:30.210Z,71.20
2017-07-10T20:31:58.527Z,70.80
2017-07-10T20:34:26.054Z,70.80
2017-07-10T20:36:53.586Z,70.20
2017-07-10T20:39:21.127Z,70.70
2017-07-10T20:41:48.659Z,70.00
2017-07-10T20:44:16.202Z,69.90
2017-07-10T20:46:43.726Z,70.30
2017-07-10T20:49:11.279Z,70.00
2017-07-10T20:51:38.826Z,70.00
2017-07-10T20:54:06.375Z,70.80
2017-07-10T20:56:33.886Z,70.70
2017-07-10T20:59:01.402Z,71.40
2017-07-10T21:01:28.973Z,71.70
2017-07-10T21:03:56.495Z,70.60
2017-07-10T21:06:24.046Z,71.80
2017-07-10T21:08:51.563Z,71.80
2017-07-10T21:11:19.322Z,72.20
2017-07-10T21:13:47.657Z,72.50
2017-07-10T21:16:15.253Z,72.40
2017-07-10T21:18:42.837Z,72.70
2017-07-10T21:21:10.391Z,72.70
2017-07-10T21:23:37.936Z,72.80
2017-07-10T21:26:06.224Z,72.50
2017-07-10T21:28:34.524Z,72.30
2017-07-10T21:31:02.046Z,72.20
2017-07-10T21:33:30.641Z,73.00
2017-07-10T21:35:58.191Z,72.30
2017-07-10T21:38:26.520Z,72.30
2017-07-10T21:40:54.043Z,72.20
2017-07-10T21:43:21.570Z,72.90
2017-07-10T21:45:49.110Z,73.00
2017-07-10T21:48:16.636Z,73.10
2017-07-10T21:50:44.181Z,72.60
2017-07-10T21:53:11.710Z,72.10
2017-07-10T21:55:40.029Z,72.50
2017-07-10T21:58:07.569Z,72.40
2017-07-10T22:00:35.125Z,72.90
2017-07-10T22:03:03.420Z,73.40
2017-07-10T22:05:31.047Z,73.40
2017-07-10T22:07:59.399Z,73.00
2017-07-10T22:10:26.922Z,73.00
2017-07-10T22:12:54.486Z,73.10
2017-07-10T22:15:22.012Z,72.50
2017-07-10T22:17:49.561Z,71.90
2017-07-10T22:20:17.856Z,72.40
2017-07-10T22:22:45.389Z,72.50
2017-07-10T22:25:12.926Z,72.50
2017-07-10T22:27:40.442Z,72.90
2017-07-10T22:30:07.996Z,72.80
2017-07-10T22:32:35.530Z,73.30
2017-07-10T22:35:03.832Z,73.80
2017-07-10T22:37:31.363Z,73.20
2017-07-10T22:39:59.675Z,72.30
2017-07-10T22:42:27.262Z,72.80
2017-07-10T22:44:54.811Z,72.90
2017-07-10T22:47:22.355Z,72.50
2017-07-10T22:49:49.929Z,72.70
2017-07-10T22:52:17.498Z,72.70
2017-07-10T22:54:45.029Z,72.80
2017-07-10T22:57:12.585Z,72.40
2017-07-10T22:59:40.106Z,72.60
2017-07-10T23:02:08.234Z,72.60
2017-07-10T23:04:35.760Z,72.10
2017-07-10T23:07:04.074Z,71.70
2017-07-10T23:09:31.605Z,71.70
2017-07-10T23:11:59.168Z,71.60
2017-07-10T23:14:26.715Z,71.70
2017-07-10T23:16:54.249Z,71.70
2017-07-10T23:19:21.810Z,72.40
2017-07-10T23:21:49.328Z,72.00
2017-07-10T23:24:16.865Z,72.30
2017-07-10T23:26:44.392Z,72.20
2017-07-10T23:29:12.704Z,72.20
2017-07-10T23:31:40.226Z,72.20
2017-07-10T23:34:08.513Z,73.40
2017-07-10T23:36:36.830Z,71.70
2017-07-10T23:39:04.353Z,71.70
2017-07-10T23:41:31.899Z,72.00
2017-07-10T23:44:00.190Z,72.90
2017-07-10T23:46:28.493Z,73.10
2017-07-10T23:48:56.020Z,73.10
2017-07-10T23:51:24.325Z,74.40
2017-07-10T23:53:51.845Z,74.30
2017-07-10T23:56:20.158Z,74.80
2017-07-10T23:58:48.194Z,74.70
